Terminal Aerodrome Forecast
Issued by NWS Flagstaff, AZ

Home | Current Version | Previous Version | Text Only | Print | Product List | Glossary On
Versions: 1 2 3 4 5 6 7 8 9 10 11 12
665
FTUS45 KFGZ 251735
TAFINW
TAF
KINW 251735Z 2518/2618 11009KT P6SM BKN120
     FM251900 22016G24KT P6SM FEW080
      TEMPO 2523/2601 BKN080
     FM260200 24009KT P6SM FEW080=

USA.gov is the U.S. government's official web portal to all federal, state and local government web resources and services.